sensor_id;sensor_type;location;lat;lon;timestamp;pressure;altitude;pressure_sealevel;temperature;humidity
45939;BME280;31650;48.818;9.116;2022-09-13T00:02:10;97572.25;;;13.20;100.00
45939;BME280;31650;48.818;9.116;2022-09-13T00:17:10;97551.56;;;13.25;100.00
45939;BME280;31650;48.818;9.116;2022-09-13T00:32:11;97550.66;;;13.19;100.00
45939;BME280;31650;48.818;9.116;2022-09-13T00:47:12;97553.56;;;13.46;100.00
45939;BME280;31650;48.818;9.116;2022-09-13T01:02:14;97543.09;;;12.92;100.00
45939;BME280;31650;48.818;9.116;2022-09-13T01:17:14;97524.97;;;12.86;100.00
45939;BME280;31650;48.818;9.116;2022-09-13T01:47:32;97541.25;;;12.24;100.00
45939;BME280;31650;48.818;9.116;2022-09-13T02:02:44;97554.06;;;12.11;100.00
45939;BME280;31650;48.818;9.116;2022-09-13T02:17:46;97568.44;;;11.60;100.00
45939;BME280;31650;48.818;9.116;2022-09-13T02:33:22;97578.13;;;11.56;100.00
45939;BME280;31650;48.818;9.116;2022-09-13T02:48:20;97574.56;;;11.32;100.00
45939;BME280;31650;48.818;9.116;2022-09-13T03:03:23;97581.06;;;11.30;100.00
45939;BME280;31650;48.818;9.116;2022-09-13T03:33:56;97547.84;;;10.86;100.00
45939;BME280;31650;48.818;9.116;2022-09-13T03:48:54;97563.59;;;10.96;100.00
45939;BME280;31650;48.818;9.116;2022-09-13T04:03:55;97540.53;;;10.99;100.00
45939;BME280;31650;48.818;9.116;2022-09-13T04:18:55;97547.44;;;11.13;100.00
45939;BME280;31650;48.818;9.116;2022-09-13T04:33:56;97569.31;;;11.18;100.00
45939;BME280;31650;48.818;9.116;2022-09-13T04:48:57;97571.38;;;11.70;100.00
45939;BME280;31650;48.818;9.116;2022-09-13T05:03:57;97598.00;;;11.68;100.00
45939;BME280;31650;48.818;9.116;2022-09-13T05:18:58;97605.97;;;11.69;100.00
45939;BME280;31650;48.818;9.116;2022-09-13T05:34:00;97614.00;;;11.76;100.00
45939;BME280;31650;48.818;9.116;2022-09-13T05:49:01;97622.03;;;12.30;100.00
45939;BME280;31650;48.818;9.116;2022-09-13T06:04:01;97590.06;;;12.94;100.00
45939;BME280;31650;48.818;9.116;2022-09-13T06:19:01;97606.69;;;13.55;100.00
45939;BME280;31650;48.818;9.116;2022-09-13T06:34:01;97589.34;;;13.45;100.00
45939;BME280;31650;48.818;9.116;2022-09-13T06:49:03;97587.00;;;14.09;100.00
45939;BME280;31650;48.818;9.116;2022-09-13T07:04:10;97537.91;;;15.87;100.00
45939;BME280;31650;48.818;9.116;2022-09-13T07:19:12;97517.72;;;18.05;100.00
45939;BME280;31650;48.818;9.116;2022-09-13T07:34:16;97496.66;;;18.45;100.00
45939;BME280;31650;48.818;9.116;2022-09-13T07:49:17;97493.44;;;21.14;100.00
45939;BME280;31650;48.818;9.116;2022-09-13T08:04:18;97488.97;;;24.02;100.00
45939;BME280;31650;48.818;9.116;2022-09-13T08:19:20;97470.91;;;23.28;100.00
45939;BME280;31650;48.818;9.116;2022-09-13T08:34:20;97471.22;;;23.04;100.00
45939;BME280;31650;48.818;9.116;2022-09-13T08:49:25;97472.53;;;24.54;100.00
45939;BME280;31650;48.818;9.116;2022-09-13T09:19:28;97456.78;;;26.27;89.57
45939;BME280;31650;48.818;9.116;2022-09-13T09:49:44;97461.59;;;27.19;75.02
45939;BME280;31650;48.818;9.116;2022-09-13T10:05:03;97480.28;;;26.09;99.64
45939;BME280;31650;48.818;9.116;2022-09-13T10:35:14;97454.66;;;29.87;59.25
45939;BME280;31650;48.818;9.116;2022-09-13T11:35:27;97426.78;;;30.10;46.21
45939;BME280;31650;48.818;9.116;2022-09-13T12:05:42;97420.13;;;29.55;50.68
45939;BME280;31650;48.818;9.116;2022-09-13T12:20:47;97416.81;;;30.61;42.88
45939;BME280;31650;48.818;9.116;2022-09-13T12:35:51;97396.13;;;31.04;44.74
45939;BME280;31650;48.818;9.116;2022-09-13T13:06:12;97336.78;;;31.45;40.21
45939;BME280;31650;48.818;9.116;2022-09-13T13:51:38;97294.44;;;28.78;40.25
45939;BME280;31650;48.818;9.116;2022-09-13T14:37:16;97264.06;;;28.64;39.92
45939;BME280;31650;48.818;9.116;2022-09-13T14:52:27;97258.38;;;28.20;39.77
45939;BME280;31650;48.818;9.116;2022-09-13T15:07:33;97237.19;;;27.08;43.53
45939;BME280;31650;48.818;9.116;2022-09-13T15:22:33;97217.56;;;26.38;45.34
45939;BME280;31650;48.818;9.116;2022-09-13T15:37:35;97203.97;;;26.03;46.42
45939;BME280;31650;48.818;9.116;2022-09-13T15:52:35;97178.50;;;25.63;46.87
45939;BME280;31650;48.818;9.116;2022-09-13T16:07:36;97160.13;;;25.20;46.92
45939;BME280;31650;48.818;9.116;2022-09-13T16:22:36;97158.13;;;24.82;52.04
45939;BME280;31650;48.818;9.116;2022-09-13T16:37:37;97152.22;;;24.28;61.14
45939;BME280;31650;48.818;9.116;2022-09-13T16:52:38;97137.38;;;23.71;78.57
45939;BME280;31650;48.818;9.116;2022-09-13T17:07:39;97124.44;;;23.23;92.61
45939;BME280;31650;48.818;9.116;2022-09-13T17:22:39;97138.13;;;22.71;98.17
45939;BME280;31650;48.818;9.116;2022-09-13T17:37:39;97132.91;;;21.93;100.00
45939;BME280;31650;48.818;9.116;2022-09-13T17:52:40;97131.28;;;21.19;100.00
45939;BME280;31650;48.818;9.116;2022-09-13T18:07:40;97141.03;;;20.61;100.00
45939;BME280;31650;48.818;9.116;2022-09-13T18:22:59;97135.94;;;20.03;100.00
45939;BME280;31650;48.818;9.116;2022-09-13T18:38:02;97146.34;;;19.54;100.00
45939;BME280;31650;48.818;9.116;2022-09-13T18:53:02;97157.91;;;19.56;100.00
45939;BME280;31650;48.818;9.116;2022-09-13T19:08:24;97175.50;;;19.61;100.00
45939;BME280;31650;48.818;9.116;2022-09-13T19:23:35;97195.66;;;19.37;100.00
45939;BME280;31650;48.818;9.116;2022-09-13T19:38:58;97188.06;;;19.48;100.00
45939;BME280;31650;48.818;9.116;2022-09-13T19:54:26;97180.75;;;19.38;100.00
45939;BME280;31650;48.818;9.116;2022-09-13T20:09:45;97178.53;;;19.40;100.00
45939;BME280;31650;48.818;9.116;2022-09-13T20:24:46;97171.06;;;19.22;100.00
45939;BME280;31650;48.818;9.116;2022-09-13T20:39:46;97157.22;;;18.84;100.00
45939;BME280;31650;48.818;9.116;2022-09-13T20:54:47;97149.69;;;19.13;100.00
45939;BME280;31650;48.818;9.116;2022-09-13T21:09:48;97133.31;;;18.79;100.00
45939;BME280;31650;48.818;9.116;2022-09-13T21:24:48;97145.03;;;18.90;100.00
45939;BME280;31650;48.818;9.116;2022-09-13T21:39:48;97125.03;;;18.55;100.00
45939;BME280;31650;48.818;9.116;2022-09-13T21:54:48;97136.66;;;18.47;100.00
45939;BME280;31650;48.818;9.116;2022-09-13T22:09:48;97113.31;;;18.44;100.00
45939;BME280;31650;48.818;9.116;2022-09-13T22:24:49;97129.13;;;18.34;100.00
45939;BME280;31650;48.818;9.116;2022-09-13T22:39:49;97086.66;;;18.16;100.00
45939;BME280;31650;48.818;9.116;2022-09-13T22:54:52;97092.50;;;18.09;100.00
45939;BME280;31650;48.818;9.116;2022-09-13T23:09:53;97083.34;;;17.90;100.00
45939;BME280;31650;48.818;9.116;2022-09-13T23:24:53;97095.16;;;17.56;100.00
45939;BME280;31650;48.818;9.116;2022-09-13T23:39:53;97075.66;;;17.52;100.00
45939;BME280;31650;48.818;9.116;2022-09-13T23:54:58;97058.22;;;17.67;100.00
